West Memphis, Arkansas
Current Conditions -  °F | °C
As of 11:53 PM on Wednesday 28 Jan 2015 (Local Time) from KAWM Reporting Station
Few Clouds Few Clouds  
Wind Chill: 53°   Ceiling: Unl
Heat Index: 53°   Visibility: 10mi
Dew Point: 38°   Wind: 15mph
Humidity: 57%   Direction: 180°S
Pressure: 30.05"   Gusts: NA
Location:  35.15°N, 90.19°W
Report Text: KAWM 290553Z AUTO 18013KT 10SM FEW110 12/03 A3005 RMK AO2 SLP176 T01170033 10117 20072 401500000 56012
Loading
Personal Weather Stations






























Interactive Weather Map New forecast layout! Learn more

10-Day Weather Forecast

Advertisements
Track Severe Weather on mobile